Time;durP1;ratioP1;P1;durP2;ratioP2;P2;SDS_P1;SDS_P2;PMS_P1;PMS_P2;Temp;Humidity;BMP_temperature;BMP_pressure;BME280_temperature;BME280_humidity;BME280_pressure;Samples;Min_cycle;Max_cycle;Signal;HPM_P1;HPM_P2
2022/09/05 00:02:04;;;;;;;1.83;0.63;;;;;;;12.87;51.14;101045.91;4254875;28;20256;-64
2022/09/05 00:05:09;;;;;;;5.63;0.97;;;;;;;12.85;50.94;101048.75;4246222;28;20258;-64
2022/09/05 00:07:46;;;;;;;4.70;0.90;;;;;;;12.72;51.95;101052.72;4262173;28;20959;-63
2022/09/05 00:10:28;;;;;;;6.80;0.80;;;;;;;12.71;51.76;101045.66;4247993;28;20584;-65
2022/09/05 00:13:08;;;;;;;2.33;0.80;;;;;;;12.68;51.85;101050.31;4252129;28;20238;-65
2022/09/05 00:16:05;;;;;;;1.73;0.90;;;;;;;12.66;52.17;101049.59;4234310;28;20230;-64
2022/09/05 00:18:44;;;;;;;3.73;0.70;;;;;;;12.62;52.61;101044.72;4248764;28;20373;-68
2022/09/05 00:22:04;;;;;;;2.67;1.00;;;;;;;12.56;52.74;101053.28;4248505;28;20618;-64
2022/09/05 00:25:24;;;;;;;3.43;1.00;;;;;;;12.58;52.25;101052.16;4252286;28;20698;-65
2022/09/05 00:28:06;;;;;;;7.10;0.80;;;;;;;12.49;53.01;101047.66;4220726;28;24065;-64
2022/09/05 00:31:25;;;;;;;3.03;0.83;;;;;;;12.47;52.69;101049.63;4248162;28;21016;-64
2022/09/05 00:34:50;;;;;;;1.63;0.80;;;;;;;12.48;53.17;101046.00;4241680;28;20602;-65
2022/09/05 00:37:31;;;;;;;4.67;1.00;;;;;;;12.44;52.60;101045.44;4253848;28;20229;-66
2022/09/05 00:40:28;;;;;;;2.37;1.10;;;;;;;12.39;53.21;101044.19;4250655;28;20234;-64
2022/09/05 00:43:09;;;;;;;2.67;1.03;;;;;;;12.26;54.80;101055.13;4251760;28;20226;-64
2022/09/05 00:45:50;;;;;;;1.90;0.90;;;;;;;12.30;54.02;101047.69;4254739;28;20240;-63
2022/09/05 00:48:37;;;;;;;3.23;1.43;;;;;;;12.20;54.76;101048.53;4252994;28;20289;-65
2022/09/05 00:51:31;;;;;;;1.23;0.70;;;;;;;12.20;54.81;101045.88;4244610;28;20234;-65
2022/09/05 00:54:17;;;;;;;5.67;0.90;;;;;;;12.16;54.55;101047.13;4255115;28;20280;-64
2022/09/05 00:57:31;;;;;;;1.47;0.83;;;;;;;12.09;54.76;101046.00;4267877;28;20344;-64
2022/09/05 01:00:13;;;;;;;2.43;0.80;;;;;;;12.12;54.72;101042.22;4255191;28;20246;-63
2022/09/05 01:03:10;;;;;;;4.97;0.73;;;;;;;12.01;55.34;101040.50;4233383;28;20763;-63
2022/09/05 01:06:00;;;;;;;3.37;0.90;;;;;;;11.95;55.51;101043.75;4265001;28;22183;-63
2022/09/05 01:08:52;;;;;;;2.10;0.90;;;;;;;11.84;55.65;101048.19;4248982;28;21258;-64
2022/09/05 01:11:31;;;;;;;4.83;0.70;;;;;;;11.96;55.17;101045.41;4224849;28;20501;-64
2022/09/05 01:14:33;;;;;;;4.27;0.90;;;;;;;12.04;55.63;101045.59;4248605;28;20238;-64
2022/09/05 01:17:27;;;;;;;2.73;1.10;;;;;;;11.82;55.73;101044.84;4241950;28;20233;-64
2022/09/05 01:20:31;;;;;;;3.40;0.90;;;;;;;11.90;55.83;101038.81;4255671;28;20315;-64
2022/09/05 01:23:28;;;;;;;1.90;0.90;;;;;;;11.78;56.42;101050.56;4254790;28;20229;-66
2022/09/05 01:26:09;;;;;;;1.27;0.73;;;;;;;11.67;56.81;101046.19;4237745;28;20238;-66
2022/09/05 01:29:00;;;;;;;3.70;1.23;;;;;;;11.65;56.49;101045.47;4237322;28;21723;-66
2022/09/05 01:32:21;;;;;;;2.80;0.90;;;;;;;11.58;57.45;101049.69;4247512;28;20248;-64
2022/09/05 01:34:56;;;;;;;3.40;0.97;;;;;;;11.56;56.84;101054.28;4234927;28;20264;-64
2022/09/05 01:37:39;;;;;;;1.93;0.90;;;;;;;11.47;57.63;101049.78;4247160;28;20340;-63
2022/09/05 01:40:13;;;;;;;1.47;0.60;;;;;;;11.36;58.00;101048.91;4244892;28;20253;-65
2022/09/05 01:43:03;;;;;;;1.20;0.60;;;;;;;11.38;57.59;101049.63;4250202;28;20798;-63
2022/09/05 01:45:44;;;;;;;4.97;0.90;;;;;;;11.33;58.33;101045.66;4255124;28;20246;-65
2022/09/05 01:48:46;;;;;;;2.77;0.80;;;;;;;11.25;58.76;101051.69;4251034;28;20280;-65
2022/09/05 01:51:27;;;;;;;3.77;0.90;;;;;;;11.16;58.47;101050.66;4248299;28;20249;-64
2022/09/05 01:54:40;;;;;;;3.43;0.83;;;;;;;11.15;59.32;101056.13;4253209;28;20314;-62
2022/09/05 01:57:28;;;;;;;1.70;0.90;;;;;;;11.01;59.90;101043.16;4264278;28;21628;-65
2022/09/05 02:00:05;;;;;;;3.43;1.00;;;;;;;10.92;61.08;101048.31;4238237;28;20230;-64
2022/09/05 02:02:50;;;;;;;4.17;0.90;;;;;;;10.92;60.83;101047.47;4250327;28;21571;-64
2022/09/05 02:05:35;;;;;;;2.77;1.00;;;;;;;10.91;60.46;101049.28;4241726;28;20244;-63
2022/09/05 02:08:14;;;;;;;5.13;1.07;;;;;;;10.91;60.62;101054.63;4252366;28;20246;-64
2022/09/05 02:10:59;;;;;;;3.80;0.87;;;;;;;10.83;60.70;101053.56;4253199;28;20242;-64
2022/09/05 02:13:34;;;;;;;3.10;0.70;;;;;;;10.81;61.25;101059.03;4244048;28;20249;-66
2022/09/05 02:16:33;;;;;;;6.63;1.10;;;;;;;10.81;61.25;101051.03;4234866;28;20240;-64
2022/09/05 02:19:09;;;;;;;7.43;1.20;;;;;;;10.75;61.26;101051.56;4222882;28;21075;-64
2022/09/05 02:22:10;;;;;;;4.27;1.00;;;;;;;10.66;62.13;101049.69;4251159;28;20871;-63
2022/09/05 02:24:41;;;;;;;2.13;1.00;;;;;;;10.57;61.85;101056.63;4267265;28;20303;-63
2022/09/05 02:27:19;;;;;;;4.20;0.80;;;;;;;10.55;62.36;101051.44;4254365;28;21919;-65
2022/09/05 02:30:12;;;;;;;1.87;0.90;;;;;;;10.52;62.03;101058.84;4246315;28;20245;-64
2022/09/05 02:32:43;;;;;;;6.43;0.83;;;;;;;10.48;62.10;101052.94;4233505;28;20234;-64
2022/09/05 02:35:09;;;;;;;1.60;0.80;;;;;;;10.43;62.51;101056.97;4257091;28;23745;-67
2022/09/05 02:38:17;;;;;;;3.97;1.00;;;;;;;10.43;62.67;101054.28;4255594;28;20235;-64
2022/09/05 02:41:28;;;;;;;3.00;1.00;;;;;;;10.41;62.85;101057.06;4255737;28;20432;-64
2022/09/05 02:44:23;;;;;;;3.03;1.13;;;;;;;10.44;62.42;101054.19;4253586;28;21891;-64
2022/09/05 02:47:21;;;;;;;3.23;0.90;;;;;;;10.42;62.39;101045.47;4250810;28;20304;-65
2022/09/05 02:50:12;;;;;;;3.67;1.00;;;;;;;10.42;62.55;101057.91;4242937;28;20241;-64
2022/09/05 02:52:59;;;;;;;4.63;1.07;;;;;;;10.36;62.92;101051.31;4259157;28;20241;-64
2022/09/05 02:55:55;;;;;;;7.80;0.90;;;;;;;10.22;63.54;101059.56;4253744;28;23789;-66
2022/09/05 02:58:57;;;;;;;3.77;0.90;;;;;;;10.25;63.35;101061.94;4251456;28;20458;-65
2022/09/05 03:01:54;;;;;;;3.50;0.90;;;;;;;10.26;62.83;101063.66;4263349;28;22848;-65
2022/09/05 03:04:34;;;;;;;1.73;0.70;;;;;;;10.19;63.32;101062.47;4255121;28;21688;-64
2022/09/05 03:07:22;;;;;;;2.17;1.10;;;;;;;10.07;63.81;101059.03;4253997;28;20241;-64
2022/09/05 03:10:08;;;;;;;1.87;0.87;;;;;;;9.95;64.72;101066.19;4237681;28;20746;-63
2022/09/05 03:13:13;;;;;;;3.77;0.80;;;;;;;9.84;65.13;101060.91;4252607;28;20290;-63
2022/09/05 03:16:21;;;;;;;2.53;0.90;;;;;;;9.89;65.18;101066.69;4251621;28;20408;-65
2022/09/05 03:19:12;;;;;;;3.87;0.90;;;;;;;9.93;65.06;101065.47;4247575;28;20346;-65
2022/09/05 03:22:10;;;;;;;3.27;1.00;;;;;;;9.82;65.74;101061.00;4250624;28;20323;-66
2022/09/05 03:24:58;;;;;;;4.13;0.93;;;;;;;9.76;65.99;101064.16;4260627;28;20234;-64
2022/09/05 03:27:30;;;;;;;1.80;1.00;;;;;;;9.65;66.36;101073.00;4245048;28;21281;-65
2022/09/05 03:30:14;;;;;;;2.23;1.00;;;;;;;9.62;66.82;101067.09;4248773;28;22544;-62
2022/09/05 03:33:28;;;;;;;1.47;0.87;;;;;;;9.64;66.53;101068.66;4247507;28;20257;-64
2022/09/05 03:36:12;;;;;;;3.57;1.33;;;;;;;9.58;67.10;101069.16;4236023;28;20241;-64
2022/09/05 03:38:47;;;;;;;1.93;1.00;;;;;;;9.52;67.44;101072.31;4253186;28;20268;-66
2022/09/05 03:41:24;;;;;;;4.30;1.70;;;;;;;9.39;68.39;101068.91;4252004;28;20258;-66
2022/09/05 03:44:27;;;;;;;3.37;1.10;;;;;;;9.43;68.45;101076.53;4281128;28;20248;-63
2022/09/05 03:47:16;;;;;;;4.37;1.13;;;;;;;9.44;67.98;101082.69;4250979;28;20230;-65
2022/09/05 03:49:57;;;;;;;4.03;1.07;;;;;;;9.48;67.68;101084.13;4232407;28;20800;-66
2022/09/05 03:53:02;;;;;;;2.13;1.13;;;;;;;9.51;67.69;101083.91;4247077;28;21961;-66
2022/09/05 03:56:23;;;;;;;5.17;1.30;;;;;;;9.41;68.23;101088.25;4257585;28;20670;-64
2022/09/05 03:59:34;;;;;;;5.07;1.20;;;;;;;9.46;68.20;101088.75;4244310;28;23042;-65
2022/09/05 04:02:05;;;;;;;9.33;1.10;;;;;;;9.36;68.69;101090.41;4268213;28;20230;-62
2022/09/05 04:04:59;;;;;;;6.37;1.13;;;;;;;9.45;68.25;101084.38;4248447;28;20251;-63
2022/09/05 04:08:00;;;;;;;3.43;0.90;;;;;;;9.41;68.90;101089.09;4268580;28;20641;-63
2022/09/05 04:11:05;;;;;;;3.70;1.30;;;;;;;9.41;68.71;101090.91;4284591;28;20600;-65
2022/09/05 04:13:39;;;;;;;3.00;1.13;;;;;;;9.36;68.77;101087.75;4289468;28;21132;-65
2022/09/05 04:16:22;;;;;;;5.60;1.07;;;;;;;9.39;68.72;101091.03;4253542;28;21592;-65
2022/09/05 04:18:53;;;;;;;2.43;1.00;;;;;;;9.48;68.55;101100.06;4277337;28;20312;-63
2022/09/05 04:21:34;;;;;;;5.93;1.50;;;;;;;9.42;68.62;101095.25;4321889;28;20227;-65
2022/09/05 04:24:16;;;;;;;5.30;1.53;;;;;;;9.53;68.30;101095.25;4275986;28;20226;-66
2022/09/05 04:27:15;;;;;;;4.93;1.47;;;;;;;9.46;68.03;101100.22;4281561;28;20553;-64
2022/09/05 04:29:58;;;;;;;7.97;1.33;;;;;;;9.46;68.35;101102.88;4272431;28;21114;-65
2022/09/05 04:32:34;;;;;;;4.83;1.30;;;;;;;9.55;67.92;101106.59;4255451;28;21900;-64
2022/09/05 04:35:18;;;;;;;2.97;1.20;;;;;;;9.65;67.45;101112.03;4231347;28;20231;-63
2022/09/05 04:37:45;;;;;;;3.33;1.20;;;;;;;9.75;67.20;101114.81;4246530;28;20284;-64
2022/09/05 04:40:38;;;;;;;2.33;1.20;;;;;;;9.81;67.33;101116.94;4266370;28;20772;-63
2022/09/05 04:43:09;;;;;;;5.50;1.33;;;;;;;9.84;66.70;101117.56;4241846;28;20332;-63
2022/09/05 04:45:41;;;;;;;11.13;1.70;;;;;;;9.86;66.79;101115.63;4249217;28;20250;-65
2022/09/05 04:48:11;;;;;;;6.03;1.20;;;;;;;9.91;67.09;101113.44;4256952;28;20355;-64
2022/09/05 04:50:59;;;;;;;4.17;1.50;;;;;;;9.96;66.62;101125.53;4245865;28;20283;-65
2022/09/05 04:53:47;;;;;;;3.17;1.23;;;;;;;9.83;67.62;101130.97;4254024;28;20250;-62
2022/09/05 04:56:19;;;;;;;4.70;1.10;;;;;;;9.83;67.66;101128.31;4256046;28;20234;-74
2022/09/05 04:58:54;;;;;;;5.50;1.60;;;;;;;9.88;66.70;101136.75;4233683;28;21787;-73
2022/09/05 05:01:53;;;;;;;4.63;1.40;;;;;;;9.99;66.41;101136.72;4245677;28;22165;-73
2022/09/05 05:04:39;;;;;;;3.47;1.37;;;;;;;9.97;66.08;101136.00;4251511;28;20329;-77
2022/09/05 05:07:46;;;;;;;5.43;1.23;;;;;;;10.05;65.41;101138.06;4249933;28;20230;-71
2022/09/05 05:10:24;;;;;;;4.93;1.17;;;;;;;10.17;65.30;101144.22;4258988;28;20234;-69
2022/09/05 05:13:29;;;;;;;7.90;1.40;;;;;;;10.24;65.55;101135.59;4251834;28;20261;-68
2022/09/05 05:16:24;;;;;;;9.77;1.50;;;;;;;10.33;65.29;101139.34;4236237;28;20315;-70
2022/09/05 05:19:18;;;;;;;6.20;1.53;;;;;;;10.37;65.95;101135.44;4256984;28;20599;-73
2022/09/05 05:21:51;;;;;;;4.33;1.60;;;;;;;10.51;65.72;101137.84;4278783;28;20231;-72
2022/09/05 05:24:22;;;;;;;6.83;1.67;;;;;;;10.54;64.89;101136.75;4288387;28;20601;-72
2022/09/05 05:27:07;;;;;;;8.87;1.80;;;;;;;10.63;64.64;101140.44;4250740;28;20295;-67
2022/09/05 05:29:43;;;;;;;7.67;1.87;;;;;;;10.71;64.83;101143.31;4257291;28;20292;-73
2022/09/05 05:32:22;;;;;;;9.87;1.67;;;;;;;10.85;64.24;101134.16;4242204;28;23172;-64
2022/09/05 05:35:10;;;;;;;10.33;1.50;;;;;;;10.93;64.20;101137.00;4249129;28;20244;-69
2022/09/05 05:37:47;;;;;;;10.27;1.90;;;;;;;11.10;62.08;101144.44;4261177;28;20231;-67
2022/09/05 05:40:14;;;;;;;3.80;1.37;;;;;;;11.19;60.24;101143.63;4248494;28;20315;-68
2022/09/05 05:42:41;;;;;;;10.40;1.40;;;;;;;11.32;61.18;101148.75;4238335;28;20233;-67
2022/09/05 05:45:18;;;;;;;6.13;1.53;;;;;;;11.48;60.56;101152.75;4245310;28;20239;-68
2022/09/05 05:47:48;;;;;;;7.30;1.40;;;;;;;11.56;59.80;101156.44;4238774;28;20238;-70
2022/09/05 05:50:36;;;;;;;7.47;1.50;;;;;;;11.71;59.33;101156.94;4254627;28;20268;-68
2022/09/05 05:53:22;;;;;;;8.63;1.30;;;;;;;11.80;58.66;101161.47;4250351;28;20343;-67
2022/09/05 05:56:34;;;;;;;7.00;1.90;;;;;;;11.95;57.35;101166.44;4238699;28;20930;-64
2022/09/05 05:59:43;;;;;;;7.03;1.40;;;;;;;12.10;56.54;101169.56;4261754;28;21455;-71
2022/09/05 06:02:51;;;;;;;11.63;1.33;;;;;;;12.20;56.68;101173.13;4252984;28;20236;-73
2022/09/05 06:05:58;;;;;;;10.20;1.60;;;;;;;12.39;55.97;101175.81;4282209;28;20238;-69
2022/09/05 06:08:43;;;;;;;6.43;1.30;;;;;;;12.50;56.39;101172.16;4255545;28;20271;-69
2022/09/05 06:12:00;;;;;;;8.80;1.50;;;;;;;12.70;54.65;101180.19;4265936;28;20229;-66
2022/09/05 06:15:06;;;;;;;4.60;1.20;;;;;;;12.86;54.42;101180.47;4251931;28;20239;-68
2022/09/05 06:18:06;;;;;;;4.20;1.33;;;;;;;13.04;54.12;101186.78;4262172;28;20753;-67
2022/09/05 06:20:57;;;;;;;4.20;1.10;;;;;;;13.19;51.83;101183.66;4257957;28;20270;-73
2022/09/05 06:24:06;;;;;;;4.40;1.27;;;;;;;13.34;52.34;101186.75;4228221;28;20234;-70
2022/09/05 06:26:43;;;;;;;10.33;1.50;;;;;;;13.47;52.51;101192.63;4230885;28;20233;-74
2022/09/05 06:29:26;;;;;;;8.60;1.50;;;;;;;13.57;50.79;101189.91;4247339;28;20315;-71
2022/09/05 06:32:47;;;;;;;12.63;1.67;;;;;;;13.68;51.02;101185.22;4259529;28;20241;-73
2022/09/05 06:35:57;;;;;;;4.57;1.23;;;;;;;13.86;49.98;101190.66;4248177;28;20404;-76
2022/09/05 06:38:51;;;;;;;7.03;1.07;;;;;;;13.99;49.68;101192.13;4266409;28;20238;-74
2022/09/05 06:41:25;;;;;;;6.93;1.20;;;;;;;14.13;48.63;101195.16;4252422;28;20329;-77
2022/09/05 06:44:18;;;;;;;11.67;1.50;;;;;;;14.34;47.95;101202.91;4245863;28;20853;-73
2022/09/05 06:46:45;;;;;;;7.50;1.40;;;;;;;14.53;46.76;101206.47;4228530;28;22669;-70
2022/09/05 06:49:54;;;;;;;14.93;1.20;;;;;;;14.75;46.17;101214.09;4259455;28;20234;-71
2022/09/05 06:52:59;;;;;;;4.20;1.17;;;;;;;14.95;44.37;101211.25;4266947;28;25416;-72
2022/09/05 06:55:58;;;;;;;10.27;1.10;;;;;;;15.50;43.55;101221.72;4233656;28;20234;-73
2022/09/05 06:59:02;;;;;;;8.73;1.83;;;;;;;18.56;36.65;101240.34;4242565;28;21933;-70
2022/09/05 07:01:55;;;;;;;10.80;1.57;;;;;;;22.00;30.17;101256.78;4259480;28;22050;-71
2022/09/05 07:04:34;;;;;;;4.90;1.10;;;;;;;24.02;26.61;101265.91;4254512;28;20241;-72
2022/09/05 07:07:26;;;;;;;11.77;1.10;;;;;;;25.08;23.82;101278.19;4261650;28;20238;-70
2022/09/05 07:09:59;;;;;;;9.80;1.20;;;;;;;26.05;22.64;101286.78;4242893;28;20252;-73
2022/09/05 07:12:29;;;;;;;6.03;0.97;;;;;;;27.27;21.13;101288.53;4251801;28;22985;-71
2022/09/05 07:15:27;;;;;;;9.97;1.30;;;;;;;27.76;19.82;101291.88;4291442;28;21610;-66
2022/09/05 07:18:06;;;;;;;3.07;0.97;;;;;;;28.70;19.49;101301.03;4262559;28;20241;-68
2022/09/05 07:21:03;;;;;;;4.40;0.80;;;;;;;30.60;17.11;101313.88;4254154;28;20889;-69
2022/09/05 07:23:54;;;;;;;8.40;1.10;;;;;;;30.91;16.22;101309.56;4253211;28;20650;-70
2022/09/05 07:26:41;;;;;;;8.82;0.98;;;;;;;30.97;16.54;101309.63;4248978;28;21222;-70
2022/09/05 07:29:26;;;;;;;6.63;1.00;;;;;;;32.50;15.52;101315.31;4225854;28;20248;-74
2022/09/05 07:31:54;;;;;;;3.33;1.10;;;;;;;33.53;13.83;101325.44;4252172;28;20275;-45
2022/09/05 07:34:30;;;;;;;8.85;1.27;;;;;;;32.46;14.33;101317.81;4274201;28;23681;-59
2022/09/05 07:37:06;;;;;;;9.73;1.55;;;;;;;32.68;14.17;101317.63;4258049;28;20235;-66
2022/09/05 07:40:00;;;;;;;8.27;1.10;;;;;;;32.96;14.31;101320.97;4250911;28;20244;-68
2022/09/05 07:42:55;;;;;;;4.75;0.93;;;;;;;34.04;12.90;101325.38;4278288;28;20230;-69
2022/09/05 07:45:37;;;;;;;6.68;1.27;;;;;;;34.82;12.05;101326.72;4256198;28;20305;-67
2022/09/05 07:48:23;;;;;;;10.68;1.40;;;;;;;35.63;11.20;101316.13;4258517;28;20229;-70
2022/09/05 07:51:03;;;;;;;6.20;1.10;;;;;;;34.48;12.89;101319.13;4250967;28;21021;-69
2022/09/05 07:53:52;;;;;;;8.68;1.20;;;;;;;34.13;13.08;101316.53;4277121;28;20306;-72
2022/09/05 07:56:44;;;;;;;7.28;0.98;;;;;;;32.39;13.36;101309.78;4249510;28;20238;-67
2022/09/05 07:59:33;;;;;;;3.72;1.10;;;;;;;31.54;14.22;101300.78;4244246;28;20242;-67
2022/09/05 08:02:00;;;;;;;4.93;1.13;;;;;;;31.66;14.42;101301.41;4250672;28;23676;-73
2022/09/05 08:04:32;;;;;;;3.97;0.95;;;;;;;31.27;14.03;101296.13;4239909;28;20230;-71
2022/09/05 08:07:11;;;;;;;5.68;1.10;;;;;;;31.46;14.18;101298.50;4305289;28;20306;-72
2022/09/05 08:10:09;;;;;;;3.63;0.70;;;;;;;29.95;15.32;101298.22;4259196;28;21079;-72
2022/09/05 08:12:49;;;;;;;6.20;1.00;;;;;;;28.36;16.62;101284.47;4250829;28;20813;-72
2022/09/05 08:15:37;;;;;;;6.13;0.83;;;;;;;26.76;18.74;101273.50;4252412;28;20282;-73
2022/09/05 08:18:35;;;;;;;3.00;0.80;;;;;;;25.45;19.96;101275.59;4247114;28;20362;-71
2022/09/05 08:21:22;;;;;;;6.53;0.80;;;;;;;24.77;22.11;101259.94;4248355;28;20272;-73
2022/09/05 08:24:10;;;;;;;6.47;0.90;;;;;;;22.75;23.67;101255.03;4271296;28;20321;-72
2022/09/05 08:26:49;;;;;;;7.27;0.90;;;;;;;21.90;25.17;101240.91;4227116;28;22892;-73
2022/09/05 08:29:30;;;;;;;2.60;0.97;;;;;;;21.40;25.54;101242.88;4245594;28;20833;-71
2022/09/05 08:32:12;;;;;;;3.97;1.10;;;;;;;21.79;25.94;101249.59;4265853;28;20237;-74
2022/09/05 08:34:53;;;;;;;4.43;0.90;;;;;;;21.61;25.03;101241.13;4245038;28;20883;-71
2022/09/05 08:37:22;;;;;;;8.67;1.00;;;;;;;21.84;25.66;101230.03;4262979;28;20300;-70
2022/09/05 08:40:05;;;;;;;6.63;0.90;;;;;;;22.19;25.03;101238.13;4426504;28;20230;-72
2022/09/05 08:42:48;;;;;;;4.73;0.70;;;;;;;21.86;25.10;101233.38;4530295;28;20230;-72
2022/09/05 08:46:00;;;;;;;3.77;0.70;;;;;;;21.41;25.72;101230.16;4240153;28;20410;-70
2022/09/05 08:49:00;;;;;;;2.03;0.87;;;;;;;21.38;25.89;101223.25;4256400;28;20363;-70
2022/09/05 08:51:54;;;;;;;4.43;0.80;;;;;;;21.20;25.95;101233.72;4271007;28;20245;-73
2022/09/05 08:54:42;;;;;;;2.20;0.90;;;;;;;21.16;26.46;101232.44;4255714;28;21092;-70
2022/09/05 08:57:19;;;;;;;3.57;1.00;;;;;;;21.32;26.43;101223.19;4303876;28;20296;-74
2022/09/05 08:59:51;;;;;;;7.10;0.63;;;;;;;21.58;25.50;101225.28;4329795;28;20605;-71
2022/09/05 09:03:05;;;;;;;1.03;0.50;;;;;;;21.78;24.57;101226.25;4277049;28;20256;-71
2022/09/05 09:05:37;;;;;;;6.33;0.73;;;;;;;21.80;24.53;101226.88;4280759;28;20240;-71
2022/09/05 09:08:55;;;;;;;3.80;0.60;;;;;;;21.71;25.28;101223.50;4267031;28;20671;-71
2022/09/05 09:11:33;;;;;;;1.67;0.50;;;;;;;21.67;25.08;101224.09;4258901;28;20241;-70
2022/09/05 09:14:39;;;;;;;3.27;0.73;;;;;;;21.69;24.47;101211.19;4255564;28;22979;-71
2022/09/05 09:17:36;;;;;;;3.00;0.60;;;;;;;21.93;24.55;101210.69;4275368;28;20226;-74
2022/09/05 09:20:12;;;;;;;3.90;0.57;;;;;;;21.78;24.68;101210.00;4271638;28;20321;-74
2022/09/05 09:23:04;;;;;;;6.77;0.87;;;;;;;21.38;24.60;101203.47;4271888;28;20270;-70
2022/09/05 09:25:42;;;;;;;3.50;0.50;;;;;;;20.92;25.20;101201.22;4281882;28;20550;-71
2022/09/05 09:28:34;;;;;;;2.90;0.57;;;;;;;20.28;26.11;101201.97;4255844;28;20233;-71
2022/09/05 09:31:41;;;;;;;0.57;0.37;;;;;;;19.83;26.46;101191.25;4273803;28;20288;-71
2022/09/05 09:34:31;;;;;;;3.17;0.60;;;;;;;19.78;27.02;101197.19;4255558;28;20236;-72
2022/09/05 09:37:23;;;;;;;4.67;0.60;;;;;;;19.81;27.39;101183.31;4251417;28;20372;-68
2022/09/05 09:40:42;;;;;;;1.90;0.53;;;;;;;20.18;27.86;101186.91;4258132;28;20517;-67
2022/09/05 09:43:28;;;;;;;3.43;0.63;;;;;;;20.54;27.09;101179.81;4261420;28;20271;-66
2022/09/05 09:46:14;;;;;;;13.80;1.07;;;;;;;20.76;26.94;101186.06;4237839;28;20312;-65
2022/09/05 09:48:57;;;;;;;1.20;0.47;;;;;;;20.51;26.92;101178.31;4271989;28;20222;-64
2022/09/05 09:51:29;;;;;;;4.77;1.00;;;;;;;20.01;27.32;101170.03;4252641;28;20233;-69
2022/09/05 09:54:17;;;;;;;1.70;0.47;;;;;;;19.67;27.17;101173.31;4249766;28;21087;-64
2022/09/05 09:57:33;;;;;;;1.93;0.53;;;;;;;19.65;27.53;101169.97;4259079;28;21167;-65
2022/09/05 10:00:13;;;;;;;3.00;0.60;;;;;;;19.70;27.31;101178.38;4170996;28;20313;-67
2022/09/05 10:03:09;;;;;;;3.23;0.90;;;;;;;19.80;27.88;101170.81;4266770;28;22918;-66
2022/09/05 10:06:31;;;;;;;5.20;0.70;;;;;;;19.88;28.39;101169.03;4276846;28;20789;-67
2022/09/05 10:09:42;;;;;;;2.97;0.63;;;;;;;20.08;27.66;101170.13;4237053;28;20384;-67
2022/09/05 10:13:03;;;;;;;0.97;0.50;;;;;;;20.24;26.02;101174.47;4242770;28;20536;-64
2022/09/05 10:15:51;;;;;;;7.70;1.13;;;;;;;20.25;27.78;101159.94;4243606;28;20310;-65
2022/09/05 10:18:27;;;;;;;3.60;1.50;;;;;;;20.41;27.88;101164.25;4261565;28;20341;-64
2022/09/05 10:21:02;;;;;;;6.43;0.60;;;;;;;20.44;26.75;101164.72;4247613;28;20230;-65
2022/09/05 10:23:55;;;;;;;5.40;0.67;;;;;;;20.34;27.24;101164.19;4255258;28;20253;-65
2022/09/05 10:26:31;;;;;;;3.47;0.50;;;;;;;20.12;27.21;101151.69;4255906;28;21878;-70
2022/09/05 10:29:10;;;;;;;4.63;1.00;;;;;;;20.09;28.37;101152.91;4262127;28;20782;-67
2022/09/05 10:32:04;;;;;;;3.37;0.90;;;;;;;20.37;28.15;101157.56;4247750;28;20238;-63
2022/09/05 10:35:05;;;;;;;1.00;0.50;;;;;;;20.17;27.34;101152.78;4255527;28;20714;-68
2022/09/05 10:37:57;;;;;;;2.00;0.60;;;;;;;19.92;28.00;101152.25;4257465;28;22759;-65
2022/09/05 10:40:24;;;;;;;3.70;1.00;;;;;;;19.80;27.85;101151.06;4243162;28;23733;-67
2022/09/05 10:42:53;;;;;;;2.93;1.00;;;;;;;19.70;29.41;101151.38;4261502;28;20469;-66
2022/09/05 10:45:53;;;;;;;4.23;0.53;;;;;;;19.37;28.80;101146.31;4247888;28;20235;-66
2022/09/05 10:48:46;;;;;;;1.47;0.63;;;;;;;19.72;28.99;101143.09;4432904;28;20236;-67
2022/09/05 10:51:28;;;;;;;4.87;1.00;;;;;;;20.07;27.69;101146.03;4356187;28;20246;-66
2022/09/05 10:54:09;;;;;;;1.33;0.70;;;;;;;20.27;27.71;101144.34;4238168;28;25186;-66
2022/09/05 10:56:46;;;;;;;9.10;1.00;;;;;;;20.30;28.41;101140.44;4252878;28;20313;-66
2022/09/05 10:59:26;;;;;;;1.53;0.50;;;;;;;20.45;27.30;101149.34;4242908;28;20637;-67
2022/09/05 11:02:21;;;;;;;2.63;0.60;;;;;;;20.39;26.91;101144.69;4258895;28;20260;-65
2022/09/05 11:05:05;;;;;;;6.80;0.53;;;;;;;20.28;27.43;101142.50;4263672;28;21121;-65
2022/09/05 11:07:51;;;;;;;0.83;0.50;;;;;;;20.14;27.23;101142.34;4247584;28;20408;-68
2022/09/05 11:10:30;;;;;;;3.00;0.63;;;;;;;20.07;28.51;101140.63;4259090;28;20288;-67
2022/09/05 11:13:03;;;;;;;3.80;0.80;;;;;;;20.23;28.81;101137.69;4251478;28;20330;-65
2022/09/05 11:15:41;;;;;;;1.93;0.70;;;;;;;20.40;28.32;101139.09;4251104;28;21609;-69
2022/09/05 11:18:39;;;;;;;5.13;1.10;;;;;;;20.22;28.35;101130.59;4264377;28;20359;-69
2022/09/05 11:22:03;;;;;;;4.93;0.60;;;;;;;20.30;27.80;101137.72;4255843;28;21669;-69
2022/09/05 11:24:49;;;;;;;3.77;0.73;;;;;;;20.36;27.97;101128.88;4263262;28;22570;-69
2022/09/05 11:27:34;;;;;;;0.57;0.50;;;;;;;20.41;27.04;101137.22;4257138;28;20238;-68
2022/09/05 11:30:05;;;;;;;1.80;0.60;;;;;;;20.45;27.60;101133.13;4235714;28;20279;-65
2022/09/05 11:33:03;;;;;;;1.03;0.50;;;;;;;20.52;27.45;101127.78;4250193;28;21231;-67
2022/09/05 11:36:01;;;;;;;1.40;0.50;;;;;;;20.29;27.50;101127.97;4251957;28;20311;-66
2022/09/05 11:39:12;;;;;;;2.63;0.77;;;;;;;20.41;27.80;101121.00;4242526;28;20313;-66
2022/09/05 11:42:05;;;;;;;5.80;0.60;;;;;;;20.56;28.32;101113.72;4250662;28;22351;-66
2022/09/05 11:44:45;;;;;;;6.97;0.80;;;;;;;20.86;27.18;101119.78;4263541;28;21067;-66
2022/09/05 11:47:49;;;;;;;2.57;0.70;;;;;;;20.92;27.96;101120.88;4228009;28;21116;-67
2022/09/05 11:50:47;;;;;;;2.53;0.40;;;;;;;20.92;26.52;101111.91;4256796;28;20629;-69
2022/09/05 11:53:47;;;;;;;0.90;0.60;;;;;;;20.98;27.25;101109.28;4258111;28;23505;-67
2022/09/05 11:56:33;;;;;;;3.53;0.60;;;;;;;21.12;26.83;101112.03;4288912;28;20238;-67
2022/09/05 11:59:38;;;;;;;2.60;0.83;;;;;;;20.82;27.16;101117.69;4257636;28;20362;-66
2022/09/05 12:02:49;;;;;;;4.00;0.70;;;;;;;20.89;27.76;101107.75;4247587;28;20411;-75
2022/09/05 12:05:29;;;;;;;5.70;0.60;;;;;;;20.94;27.80;101110.69;4231950;28;20252;-69
2022/09/05 12:08:28;;;;;;;2.60;0.60;;;;;;;20.84;27.95;101105.63;4267335;28;21678;-67
2022/09/05 12:11:09;;;;;;;3.23;0.60;;;;;;;20.83;27.67;101108.50;4252940;28;21694;-66
2022/09/05 12:13:45;;;;;;;1.67;0.60;;;;;;;21.04;27.17;101103.03;4277131;28;22061;-68
2022/09/05 12:16:21;;;;;;;5.63;0.60;;;;;;;20.93;27.86;101097.34;4254049;28;21166;-70
2022/09/05 12:19:20;;;;;;;2.43;0.47;;;;;;;20.95;27.25;101100.69;4253220;28;20234;-67
2022/09/05 12:22:19;;;;;;;2.93;0.70;;;;;;;21.17;28.04;101088.78;4255429;28;20237;-67
2022/09/05 12:24:55;;;;;;;4.03;1.10;;;;;;;21.49;26.96;101091.88;4248876;28;20230;-66
2022/09/05 12:27:46;;;;;;;2.60;0.87;;;;;;;21.28;26.46;101088.22;4261796;28;21155;-64
2022/09/05 12:30:29;;;;;;;2.20;0.80;;;;;;;21.23;26.63;101087.13;4238120;28;20267;-64
2022/09/05 12:33:30;;;;;;;2.00;0.67;;;;;;;21.37;27.12;101090.75;4264087;28;20407;-66
2022/09/05 12:36:34;;;;;;;4.03;0.60;;;;;;;21.65;26.62;101079.88;4256202;28;20628;-66
2022/09/05 12:39:25;;;;;;;2.03;0.50;;;;;;;21.38;26.73;101074.31;4263381;28;21159;-68
2022/09/05 12:42:20;;;;;;;3.37;0.50;;;;;;;21.78;26.20;101079.94;4257382;28;20732;-68
2022/09/05 12:45:12;;;;;;;1.20;0.70;;;;;;;21.97;25.91;101077.50;4250706;28;20670;-68
2022/09/05 12:47:56;;;;;;;3.43;0.70;;;;;;;22.07;25.71;101072.50;4249947;28;20241;-75
2022/09/05 12:50:33;;;;;;;7.50;1.00;;;;;;;22.24;25.99;101083.81;4242584;28;22964;-43
2022/09/05 12:53:06;;;;;;;2.77;0.60;;;;;;;22.10;25.24;101082.94;4255567;28;20247;-67
2022/09/05 12:55:57;;;;;;;3.37;0.90;;;;;;;22.02;25.42;101080.44;4275582;28;20235;-67
2022/09/05 12:58:48;;;;;;;1.60;0.40;;;;;;;21.85;25.51;101058.28;4270855;28;20284;-66
2022/09/05 13:01:40;;;;;;;5.43;0.70;;;;;;;21.61;25.96;101067.78;4256917;28;20249;-68
2022/09/05 13:04:31;;;;;;;6.00;0.80;;;;;;;21.81;26.28;101057.03;4261255;28;20234;-68
2022/09/05 13:07:06;;;;;;;3.67;0.70;;;;;;;21.85;25.94;101063.72;4290510;28;20257;-70
2022/09/05 13:09:43;;;;;;;3.83;0.70;;;;;;;21.86;25.06;101060.78;4250278;28;20238;-69